Time;durP1;ratioP1;P1;durP2;ratioP2;P2;SDS_P1;SDS_P2;PMS_P1;PMS_P2;Temp;Humidity;BMP_temperature;BMP_pressure;BME280_temperature;BME280_humidity;BME280_pressure;Samples;Min_cycle;Max_cycle;Signal;HPM_P1;HPM_P2
2023/10/18 00:02:53;;;;;;;9.70;2.40;;;;;;;10.24;96.06;99605.09;5058249;28;20044;-44
2023/10/18 00:05:22;;;;;;;17.75;2.67;;;;;;;10.23;96.20;99595.19;5068595;28;20044;-44
2023/10/18 00:07:49;;;;;;;12.68;4.10;;;;;;;10.22;96.71;99585.28;5065270;28;20473;-43
2023/10/18 00:10:20;;;;;;;12.13;2.65;;;;;;;10.20;96.86;99571.03;5066195;28;20048;-43
2023/10/18 00:12:48;;;;;;;16.25;3.13;;;;;;;10.18;97.02;99573.38;5068686;28;20053;-43
2023/10/18 00:15:15;;;;;;;10.52;2.65;;;;;;;10.19;97.06;99577.72;5065788;28;20123;-45
2023/10/18 00:17:43;;;;;;;15.85;2.88;;;;;;;10.18;97.46;99573.38;5068175;28;20044;-45
2023/10/18 00:20:15;;;;;;;13.75;3.28;;;;;;;10.18;97.61;99564.28;5068303;28;20499;-44
2023/10/18 00:22:43;;;;;;;15.95;2.92;;;;;;;10.17;97.87;99571.75;5067552;28;20115;-47
2023/10/18 00:25:11;;;;;;;9.38;2.53;;;;;;;10.17;98.42;99569.00;5068813;28;20040;-44
2023/10/18 00:27:38;;;;;;;13.07;2.58;;;;;;;10.15;98.41;99565.81;5060210;28;20650;-43
2023/10/18 00:30:12;;;;;;;17.30;4.25;;;;;;;10.16;98.34;99558.31;5069222;28;20051;-43
2023/10/18 00:32:41;;;;;;;12.07;2.85;;;;;;;10.15;98.59;99563.03;5055028;28;20047;-46
2023/10/18 00:35:24;;;;;;;17.35;5.40;;;;;;;10.16;98.75;99548.06;5068146;28;20060;-43
2023/10/18 00:37:55;;;;;;;18.15;5.25;;;;;;;10.14;98.95;99542.06;5063031;28;20045;-42
2023/10/18 00:43:13;;;;;;;13.02;3.30;;;;;;;10.14;99.45;99538.53;5066207;28;20040;-44
2023/10/18 00:45:47;;;;;;;14.15;3.05;;;;;;;10.14;99.66;99527.47;5053750;28;20044;-43
2023/10/18 00:48:16;;;;;;;11.60;3.22;;;;;;;10.14;99.95;99522.72;5058826;28;20473;-44
2023/10/18 00:50:43;;;;;;;7.60;2.72;;;;;;;10.15;99.92;99520.75;5063690;28;20064;-44
2023/10/18 00:53:11;;;;;;;14.75;2.85;;;;;;;10.15;99.99;99520.75;5065697;28;20532;-51
2023/10/18 00:55:38;;;;;;;10.55;2.63;;;;;;;10.18;99.93;99522.78;5067801;28;20463;-44
2023/10/18 00:58:15;;;;;;;7.28;3.00;;;;;;;10.19;100.00;99525.16;5065844;28;20414;-44
2023/10/18 01:00:43;;;;;;;18.67;4.15;;;;;;;10.19;100.00;99519.63;5067276;28;20103;-43
2023/10/18 01:03:15;;;;;;;10.13;3.47;;;;;;;10.21;100.00;99522.03;5067405;28;20079;-46
2023/10/18 01:06:03;;;;;;;16.58;3.22;;;;;;;10.22;100.00;99516.13;5057195;28;20049;-45
2023/10/18 01:08:32;;;;;;;11.50;3.22;;;;;;;10.23;100.00;99517.72;5065263;28;20052;-45
2023/10/18 01:11:06;;;;;;;11.18;4.53;;;;;;;10.24;100.00;99522.09;5067217;28;20036;-44
2023/10/18 01:13:38;;;;;;;17.05;3.67;;;;;;;10.24;100.00;99516.56;5066857;28;20700;-44
2023/10/18 01:16:14;;;;;;;12.32;3.67;;;;;;;10.24;100.00;99499.97;5056060;28;20060;-44
2023/10/18 01:18:48;;;;;;;13.57;3.33;;;;;;;10.25;100.00;99507.09;5068159;28;20050;-43
2023/10/18 01:21:18;;;;;;;11.05;3.75;;;;;;;10.26;100.00;99494.88;5048981;28;20044;-45
2023/10/18 01:23:54;;;;;;;14.63;3.22;;;;;;;10.27;100.00;99499.22;5066073;28;20476;-44
2023/10/18 01:26:29;;;;;;;8.18;3.00;;;;;;;10.28;100.00;99488.94;5050251;28;20517;-43
2023/10/18 01:28:58;;;;;;;17.33;3.25;;;;;;;10.29;100.00;99502.41;5056712;28;20796;-49
2023/10/18 01:31:24;;;;;;;10.73;3.45;;;;;;;10.31;100.00;99494.53;5067201;28;20053;-43
2023/10/18 01:33:53;;;;;;;7.85;3.13;;;;;;;10.31;100.00;99475.19;5066026;28;20501;-45
2023/10/18 01:36:21;;;;;;;12.75;3.65;;;;;;;10.33;100.00;99483.88;5067303;28;20513;-43
2023/10/18 01:38:52;;;;;;;11.15;3.80;;;;;;;10.33;100.00;99472.81;5067192;28;20052;-43
2023/10/18 01:41:25;;;;;;;13.35;3.30;;;;;;;10.35;100.00;99462.16;5066794;28;20113;-44
2023/10/18 01:44:10;;;;;;;12.93;3.17;;;;;;;10.37;100.00;99462.63;5060539;28;20143;-43
2023/10/18 01:46:44;;;;;;;6.30;2.40;;;;;;;10.39;100.00;99449.19;5062500;28;20036;-44
2023/10/18 01:49:13;;;;;;;8.93;2.63;;;;;;;10.40;100.00;99434.19;5065476;28;20051;-48
2023/10/18 01:51:43;;;;;;;11.98;3.30;;;;;;;10.43;100.00;99429.09;5063871;28;20045;-46
2023/10/18 01:54:13;;;;;;;7.32;2.38;;;;;;;10.45;100.00;99427.53;5066809;28;20049;-46
2023/10/18 01:56:41;;;;;;;17.45;3.78;;;;;;;10.48;100.00;99420.44;5055844;28;20465;-45
2023/10/18 01:59:08;;;;;;;33.38;7.05;;;;;;;10.50;100.00;99416.13;5066415;28;20052;-44
2023/10/18 02:01:35;;;;;;;10.52;2.45;;;;;;;10.52;100.00;99407.44;5065648;28;20097;-44
2023/10/18 02:04:03;;;;;;;10.73;2.78;;;;;;;10.53;100.00;99406.28;5066759;28;20052;-44
2023/10/18 02:06:30;;;;;;;8.82;2.50;;;;;;;10.54;100.00;99396.81;5042896;28;20169;-45
2023/10/18 02:08:57;;;;;;;7.00;2.50;;;;;;;10.57;100.00;99390.50;5066331;28;20064;-48
2023/10/18 02:11:23;;;;;;;12.00;2.92;;;;;;;10.61;100.00;99385.81;5065484;28;20143;-43
2023/10/18 02:13:50;;;;;;;6.15;3.80;;;;;;;10.63;100.00;99383.47;5065915;28;20552;-44
2023/10/18 02:16:19;;;;;;;9.80;2.78;;;;;;;10.66;100.00;99385.47;5066057;28;20577;-43
2023/10/18 02:18:49;;;;;;;9.93;2.55;;;;;;;10.68;100.00;99372.03;5065643;28;20040;-44
2023/10/18 02:21:17;;;;;;;11.50;3.15;;;;;;;10.71;100.00;99368.53;5065939;28;20132;-44
2023/10/18 02:23:48;;;;;;;7.95;2.10;;;;;;;10.75;100.00;99374.91;5046423;28;20086;-47
2023/10/18 02:26:39;;;;;;;12.17;2.30;;;;;;;10.80;100.00;99360.72;5065762;28;20045;-45
2023/10/18 02:29:14;;;;;;;11.23;2.95;;;;;;;10.81;99.64;99352.03;5063701;28;20048;-44
2023/10/18 02:31:41;;;;;;;17.85;4.28;;;;;;;10.81;99.60;99354.00;5065188;28;20036;-44
2023/10/18 02:34:09;;;;;;;8.00;2.42;;;;;;;10.81;99.65;99338.19;5066081;28;20049;-49
2023/10/18 02:36:55;;;;;;;9.07;2.55;;;;;;;10.79;99.98;99329.47;5065972;28;20036;-45
2023/10/18 02:39:30;;;;;;;13.20;2.60;;;;;;;10.78;99.88;99325.09;5061393;28;20702;-43
2023/10/18 02:41:58;;;;;;;10.05;3.42;;;;;;;10.76;99.78;99318.34;5044007;28;20554;-44
2023/10/18 02:44:28;;;;;;;12.32;4.43;;;;;;;10.75;100.00;99316.78;5065973;28;20076;-47
2023/10/18 02:47:04;;;;;;;8.93;2.95;;;;;;;10.75;100.00;99308.47;5065018;28;20600;-43
2023/10/18 02:49:31;;;;;;;8.02;2.10;;;;;;;10.75;99.94;99311.25;5065887;28;20053;-46
2023/10/18 02:51:58;;;;;;;8.98;2.58;;;;;;;10.75;99.93;99303.72;5045110;28;20615;-45
2023/10/18 02:54:25;;;;;;;6.25;2.50;;;;;;;10.75;100.00;99286.34;5064875;28;20052;-50
2023/10/18 02:56:55;;;;;;;4.85;2.45;;;;;;;10.76;99.89;99282.38;5066277;28;20097;-43
2023/10/18 02:59:24;;;;;;;7.80;2.50;;;;;;;10.76;99.87;99283.16;5064419;28;20178;-46
2023/10/18 03:01:55;;;;;;;4.57;1.83;;;;;;;10.77;99.86;99273.69;5128886;23;20493;-50
2023/10/18 03:04:26;;;;;;;10.57;2.95;;;;;;;10.78;99.80;99274.47;5044549;28;20033;-46
2023/10/18 03:06:53;;;;;;;6.20;2.38;;;;;;;10.80;99.93;99264.59;5029804;28;20051;-49
2023/10/18 03:09:58;;;;;;;5.45;2.28;;;;;;;10.81;99.81;99259.88;5048975;28;20049;-47
2023/10/18 03:12:16;;;;;;;8.40;2.85;;;;;;;10.81;99.52;99251.56;5043849;28;20045;-48
2023/10/18 03:14:54;;;;;;;8.90;2.47;;;;;;;10.81;99.75;99243.25;5030403;28;20140;-48
2023/10/18 03:19:56;;;;;;;11.38;2.85;;;;;;;10.79;99.74;99227.03;5048217;28;20072;-47
2023/10/18 03:22:31;;;;;;;8.40;2.70;;;;;;;10.80;99.77;99222.31;5031735;28;20045;-48
2023/10/18 03:25:01;;;;;;;12.40;2.58;;;;;;;10.80;99.89;99212.00;5049581;28;20051;-49
2023/10/18 03:27:31;;;;;;;9.63;3.55;;;;;;;10.80;100.00;99211.22;5044873;28;20036;-46
2023/10/18 03:29:58;;;;;;;8.32;2.80;;;;;;;10.80;100.00;99200.16;5048877;28;20141;-48
2023/10/18 03:32:26;;;;;;;17.17;3.47;;;;;;;10.81;100.00;99193.44;5048844;28;20065;-46
2023/10/18 03:34:54;;;;;;;8.57;2.80;;;;;;;10.82;100.00;99193.06;5049167;28;20372;-47
2023/10/18 03:37:21;;;;;;;19.20;3.55;;;;;;;10.83;100.00;99188.28;5049034;28;20056;-47
2023/10/18 03:39:49;;;;;;;10.50;3.35;;;;;;;10.83;100.00;99182.75;5048584;28;20044;-46
2023/10/18 03:42:31;;;;;;;13.02;3.78;;;;;;;10.84;100.00;99178.81;5049171;28;20052;-46
2023/10/18 03:44:59;;;;;;;;;;;;;;;10.85;100.00;99174.88;5044168;28;20452;-47
2023/10/18 03:47:28;;;;;;;17.77;3.40;;;;;;;10.86;99.99;99168.16;5048216;28;19924;-47
2023/10/18 03:49:58;;;;;;;9.52;3.70;;;;;;;10.85;100.00;99159.06;5047780;28;20140;-48
2023/10/18 03:52:27;;;;;;;18.30;5.28;;;;;;;10.87;100.00;99161.44;5048499;28;20048;-47
2023/10/18 03:57:37;;;;;;;10.52;3.40;;;;;;;10.89;100.00;99154.34;5048765;28;20132;-50
2023/10/18 04:00:28;;;;;;;15.55;3.90;;;;;;;10.91;100.00;99151.16;5047986;28;20045;-46
2023/10/18 04:03:07;;;;;;;12.27;3.92;;;;;;;10.93;100.00;99149.59;5043934;28;20123;-47
2023/10/18 04:08:06;;;;;;;23.45;5.70;;;;;;;10.95;100.00;99152.00;5048543;28;20069;-45
2023/10/18 04:10:36;;;;;;;10.27;3.60;;;;;;;10.98;100.00;99148.47;5048780;28;20044;-46
2023/10/18 04:13:11;;;;;;;7.47;3.45;;;;;;;10.98;100.00;99134.63;5029750;28;20029;-46
2023/10/18 04:15:39;;;;;;;10.88;4.05;;;;;;;11.01;100.00;99133.84;5047526;28;20087;-46
2023/10/18 04:20:37;;;;;;;17.27;5.07;;;;;;;11.03;100.00;99103.78;5046937;28;20037;-48
2023/10/18 04:23:19;;;;;;;10.90;3.97;;;;;;;11.04;100.00;99099.81;5048144;28;20462;-48
2023/10/18 04:25:57;;;;;;;14.70;3.80;;;;;;;11.06;100.00;99091.94;5047881;28;20059;-46
2023/10/18 04:28:25;;;;;;;9.27;3.55;;;;;;;11.06;100.00;99086.41;5044525;28;20418;-46
2023/10/18 04:30:59;;;;;;;13.25;4.78;;;;;;;11.08;100.00;99086.81;5047742;28;20045;-47
2023/10/18 04:33:36;;;;;;;20.35;5.30;;;;;;;11.09;100.00;99093.13;5047370;28;20402;-49
2023/10/18 04:36:12;;;;;;;8.90;3.17;;;;;;;11.09;100.00;99091.16;5048429;28;20188;-47
2023/10/18 04:38:46;;;;;;;11.48;3.72;;;;;;;11.11;100.00;99088.78;5048373;28;20048;-51
2023/10/18 04:43:51;;;;;;;13.98;4.47;;;;;;;11.12;100.00;99078.50;5046329;28;20103;-47
2023/10/18 04:46:25;;;;;;;16.75;4.03;;;;;;;11.12;100.00;99068.22;5045434;28;20033;-47
2023/10/18 04:51:33;;;;;;;14.77;4.85;;;;;;;11.14;100.00;99070.59;5047200;28;20060;-47
2023/10/18 04:54:35;;;;;;;17.27;4.25;;;;;;;11.13;100.00;99055.97;5047513;28;20043;-48
2023/10/18 04:57:04;;;;;;;15.85;4.78;;;;;;;11.13;100.00;99053.19;5026817;28;20045;-49
2023/10/18 04:59:44;;;;;;;14.27;4.13;;;;;;;11.14;100.00;99046.47;5046659;28;20052;-47
2023/10/18 05:02:17;;;;;;;16.58;4.07;;;;;;;11.15;100.00;99044.47;5026553;28;20052;-46
2023/10/18 05:04:46;;;;;;;12.32;4.65;;;;;;;11.15;100.00;99034.19;5047328;28;20041;-47
2023/10/18 05:12:27;;;;;;;17.60;4.28;;;;;;;11.18;100.00;99013.22;5029949;28;20118;-47
2023/10/18 05:17:47;;;;;;;20.65;6.32;;;;;;;11.19;100.00;99012.84;5045774;28;20049;-48
2023/10/18 05:22:49;;;;;;;12.65;3.95;;;;;;;11.20;100.00;98997.81;5042720;28;20053;-49
2023/10/18 05:28:00;;;;;;;11.30;2.92;;;;;;;11.22;100.00;98978.03;5044845;28;20101;-49
2023/10/18 05:33:29;;;;;;;16.40;3.63;;;;;;;11.25;100.00;98968.94;4987543;28;20077;-49
2023/10/18 05:36:11;;;;;;;12.80;3.38;;;;;;;11.25;100.00;98964.19;5040953;28;20187;-46
2023/10/18 05:41:28;;;;;;;16.83;5.05;;;;;;;11.27;100.00;98969.34;5045666;28;20152;-47
2023/10/18 05:43:59;;;;;;;22.33;4.40;;;;;;;11.29;100.00;98967.75;5032804;28;20071;-48
2023/10/18 05:46:27;;;;;;;13.93;5.53;;;;;;;11.30;100.00;98965.78;5044651;28;20055;-50
2023/10/18 05:48:57;;;;;;;17.70;4.43;;;;;;;11.32;100.00;98957.88;5045562;28;20501;-48
2023/10/18 05:54:00;;;;;;;15.32;4.45;;;;;;;11.36;100.00;98958.66;5045177;28;20055;-48
2023/10/18 05:56:31;;;;;;;20.63;4.90;;;;;;;11.36;100.00;98940.06;5023388;28;20053;-47
2023/10/18 06:02:01;;;;;;;19.27;5.55;;;;;;;11.42;100.00;98932.94;5023559;28;20136;-50
2023/10/18 06:04:33;;;;;;;18.65;4.70;;;;;;;11.44;100.00;98936.13;4999594;28;20041;-46
2023/10/18 06:07:09;;;;;;;23.17;5.05;;;;;;;11.46;100.00;98925.41;5023546;28;22183;-51
2023/10/18 06:12:37;;;;;;;27.08;5.85;;;;;;;11.51;100.00;98913.16;4989103;28;20045;-47
2023/10/18 06:15:10;;;;;;;14.82;4.85;;;;;;;11.54;100.00;98915.91;5023423;28;20076;-46
2023/10/18 06:18:05;;;;;;;35.25;7.65;;;;;;;11.56;100.00;98905.25;5006246;28;20120;-49
2023/10/18 06:20:34;;;;;;;20.98;7.30;;;;;;;11.58;100.00;98907.63;5024553;28;20079;-50
2023/10/18 06:25:49;;;;;;;22.00;7.28;;;;;;;11.58;100.00;98913.16;5011677;28;20041;-46
2023/10/18 06:28:24;;;;;;;26.48;7.50;;;;;;;11.59;100.00;98910.00;5024697;28;20150;-47
2023/10/18 06:30:52;;;;;;;18.55;7.68;;;;;;;11.60;100.00;98921.84;5024951;28;20576;-47
2023/10/18 06:33:21;;;;;;;21.58;7.38;;;;;;;11.62;100.00;98903.66;4994796;28;20037;-46
2023/10/18 06:35:51;;;;;;;21.27;6.78;;;;;;;11.63;100.00;98898.91;5024173;28;20557;-47
2023/10/18 06:38:19;;;;;;;26.20;7.50;;;;;;;11.64;100.00;98892.19;5024745;28;20164;-49
2023/10/18 06:40:53;;;;;;;25.27;7.03;;;;;;;11.65;100.00;98899.28;5014645;28;20053;-48
2023/10/18 06:43:32;;;;;;;33.22;7.43;;;;;;;11.66;100.00;98889.00;5028779;28;20036;-47
2023/10/18 06:45:59;;;;;;;17.15;7.05;;;;;;;11.66;100.00;98886.22;5029815;28;20156;-46
2023/10/18 06:48:28;;;;;;;25.45;8.73;;;;;;;11.68;100.00;98878.28;5015670;28;20263;-51
2023/10/18 06:50:57;;;;;;;24.92;7.15;;;;;;;11.68;100.00;98873.56;5027515;28;20049;-48
2023/10/18 06:53:28;;;;;;;25.23;8.20;;;;;;;11.69;100.00;98868.84;5028559;28;20040;-54
2023/10/18 06:55:58;;;;;;;38.05;8.98;;;;;;;11.69;100.00;98868.84;5028929;28;20111;-46
2023/10/18 07:01:03;;;;;;;26.60;7.93;;;;;;;11.68;100.00;98861.66;5022050;28;20087;-46
2023/10/18 07:03:33;;;;;;;24.08;8.88;;;;;;;11.68;100.00;98875.53;5025237;28;20571;-49
2023/10/18 07:06:18;;;;;;;26.05;7.85;;;;;;;11.67;100.00;98871.19;5028900;28;20045;-52
2023/10/18 07:08:45;;;;;;;24.58;8.50;;;;;;;11.67;100.00;98871.19;5036896;28;20045;-51
2023/10/18 07:11:18;;;;;;;24.63;8.15;;;;;;;11.68;100.00;98864.44;5033341;28;20044;-49
2023/10/18 07:13:54;;;;;;;24.48;7.75;;;;;;;11.68;100.00;98862.47;5031617;28;20123;-47
2023/10/18 07:19:21;;;;;;;26.20;9.85;;;;;;;11.70;100.00;98848.25;5027777;28;20777;-49
2023/10/18 07:21:48;;;;;;;30.17;8.15;;;;;;;11.71;100.00;98847.84;5028156;28;20068;-48
2023/10/18 07:24:17;;;;;;;23.30;7.80;;;;;;;11.73;100.00;98844.69;5028037;28;20043;-49
2023/10/18 07:26:47;;;;;;;25.13;8.60;;;;;;;11.74;100.00;98840.69;5025895;28;20041;-49
2023/10/18 07:29:15;;;;;;;30.08;7.07;;;;;;;11.76;100.00;98849.41;5022015;28;20068;-48
2023/10/18 07:31:44;;;;;;;22.85;8.57;;;;;;;11.76;100.00;98846.63;5028801;28;20037;-50
2023/10/18 07:34:18;;;;;;;22.90;6.75;;;;;;;11.77;100.00;98848.22;5038021;28;20056;-48
2023/10/18 07:36:46;;;;;;;23.75;7.55;;;;;;;11.78;100.00;98856.13;5029187;28;20057;-49
2023/10/18 07:39:16;;;;;;;26.60;7.80;;;;;;;11.80;100.00;98852.97;5036967;28;20049;-49
2023/10/18 07:41:43;;;;;;;25.98;6.80;;;;;;;11.81;100.00;98857.34;5017298;28;20132;-48
2023/10/18 07:44:10;;;;;;;19.77;7.75;;;;;;;11.83;100.00;98852.19;5037584;28;20059;-49
2023/10/18 07:46:40;;;;;;;27.40;8.70;;;;;;;11.82;100.00;98861.69;5041877;28;20028;-49
2023/10/18 07:49:15;;;;;;;22.67;8.07;;;;;;;11.82;100.00;98854.16;5039419;28;20056;-47
2023/10/18 07:51:49;;;;;;;22.60;7.10;;;;;;;11.83;100.00;98849.41;5028689;28;20041;-47
2023/10/18 07:54:20;;;;;;;26.33;6.63;;;;;;;11.84;100.00;98853.75;5030923;28;20049;-53
2023/10/18 07:56:52;;;;;;;29.73;8.13;;;;;;;11.85;100.00;98849.78;5023478;28;20067;-48
2023/10/18 07:59:30;;;;;;;25.58;9.23;;;;;;;11.86;100.00;98852.16;5022884;28;20053;-49
2023/10/18 08:02:12;;;;;;;24.75;8.00;;;;;;;11.89;100.00;98847.78;5038555;28;20044;-47
2023/10/18 08:04:42;;;;;;;22.65;6.97;;;;;;;11.90;100.00;98847.41;5035384;28;20112;-49
2023/10/18 08:07:15;;;;;;;23.70;7.13;;;;;;;11.91;100.00;98842.66;5038548;28;20048;-54
2023/10/18 08:09:43;;;;;;;21.60;8.50;;;;;;;11.92;100.00;98836.69;5027396;28;20111;-52
2023/10/18 08:14:50;;;;;;;57.80;11.35;;;;;;;11.95;100.00;98832.34;5023918;28;20225;-47
2023/10/18 08:22:52;;;;;;;27.42;6.97;;;;;;;11.96;100.00;98820.06;5020480;28;20053;-46
2023/10/18 08:25:23;;;;;;;27.00;8.00;;;;;;;11.97;100.00;98818.84;5041346;28;20493;-47
2023/10/18 08:27:54;;;;;;;26.90;8.53;;;;;;;11.97;100.00;98818.84;5028774;28;20136;-49
2023/10/18 08:30:38;;;;;;;29.87;8.10;;;;;;;11.98;100.00;98818.47;5024284;28;20049;-49
2023/10/18 08:33:06;;;;;;;24.58;7.82;;;;;;;12.00;100.00;98801.41;5024508;28;20830;-50
2023/10/18 08:35:34;;;;;;;26.00;7.30;;;;;;;12.03;100.00;98808.94;5029390;28;20487;-47
2023/10/18 08:38:03;;;;;;;27.23;8.45;;;;;;;12.05;100.00;98801.00;5036952;28;20045;-48
2023/10/18 08:43:36;;;;;;;22.42;7.82;;;;;;;12.08;100.00;98786.34;5028766;28;20140;-53
2023/10/18 08:46:05;;;;;;;23.05;6.82;;;;;;;12.10;100.00;98789.47;4975655;28;20053;-50
2023/10/18 08:48:40;;;;;;;25.02;7.50;;;;;;;12.10;100.00;98779.19;5013942;28;20387;-52
2023/10/18 08:51:09;;;;;;;18.15;7.03;;;;;;;12.12;100.00;98782.38;5033106;28;20053;-46
2023/10/18 08:53:41;;;;;;;28.88;10.35;;;;;;;12.15;100.00;98778.00;5029209;28;20042;-47
2023/10/18 08:56:08;;;;;;;;;;;;;;;12.14;100.00;98779.19;5034755;28;20045;-48
2023/10/18 08:58:36;;;;;;;24.80;8.00;;;;;;;12.17;100.00;98772.81;5033690;28;19925;-49
2023/10/18 09:01:03;;;;;;;21.20;6.45;;;;;;;12.19;100.00;98773.22;5016644;28;20057;-49
2023/10/18 09:03:31;;;;;;;24.23;7.40;;;;;;;12.21;100.00;98770.81;5035462;28;20059;-46
2023/10/18 09:06:05;;;;;;;30.98;7.53;;;;;;;12.23;100.00;98768.44;5041622;28;20124;-52
2023/10/18 09:08:38;;;;;;;25.75;6.85;;;;;;;12.25;100.00;98763.28;5045809;28;20052;-48
2023/10/18 09:11:28;;;;;;;27.42;7.38;;;;;;;12.27;100.00;98752.56;5028391;28;20083;-47
2023/10/18 09:14:07;;;;;;;23.02;6.88;;;;;;;12.30;100.00;98760.06;5045799;28;20529;-47
2023/10/18 09:16:40;;;;;;;27.17;7.00;;;;;;;12.32;100.00;98752.13;5035195;28;20372;-47
2023/10/18 09:19:10;;;;;;;25.60;7.15;;;;;;;12.35;100.00;98743.00;5044916;28;20076;-47
2023/10/18 09:21:56;;;;;;;28.92;7.85;;;;;;;12.37;100.00;98732.28;5046078;28;20109;-52
2023/10/18 09:24:23;;;;;;;20.40;6.45;;;;;;;12.38;100.00;98728.31;5045993;28;20033;-47
2023/10/18 09:26:51;;;;;;;17.25;7.47;;;;;;;12.40;100.00;98734.25;5024627;28;20071;-46
2023/10/18 09:29:18;;;;;;;15.85;6.10;;;;;;;12.43;100.00;98719.56;5038351;28;20469;-52
2023/10/18 09:32:02;;;;;;;19.98;8.23;;;;;;;12.45;100.00;98713.59;5044144;28;20764;-50
2023/10/18 09:34:38;;;;;;;17.23;7.47;;;;;;;12.46;100.00;98712.41;5042507;28;20041;-48
2023/10/18 09:37:11;;;;;;;18.90;7.63;;;;;;;12.47;100.00;98714.00;5044714;28;20099;-49
2023/10/18 09:39:38;;;;;;;27.50;7.45;;;;;;;12.49;100.00;98709.63;5038412;28;20088;-53
2023/10/18 09:42:20;;;;;;;29.45;7.53;;;;;;;12.51;100.00;98707.22;5038263;28;20044;-55
2023/10/18 09:44:47;;;;;;;22.95;8.07;;;;;;;12.55;100.00;98715.53;5044989;28;20041;-49
2023/10/18 09:47:15;;;;;;;19.42;7.63;;;;;;;12.57;100.00;98715.91;5038732;28;20102;-51
2023/10/18 09:49:45;;;;;;;29.70;7.40;;;;;;;12.55;100.00;98710.75;5033576;28;20053;-52
2023/10/18 09:52:13;;;;;;;21.33;6.25;;;;;;;12.57;100.00;98713.91;5019930;28;20041;-49
2023/10/18 09:54:51;;;;;;;20.23;6.78;;;;;;;12.56;100.00;98706.78;5040237;28;20103;-51
2023/10/18 09:57:26;;;;;;;15.25;6.53;;;;;;;12.55;100.00;98699.63;5045408;28;20045;-47
2023/10/18 09:59:54;;;;;;;26.80;7.35;;;;;;;12.55;100.00;98696.09;5045606;28;20040;-54
2023/10/18 10:02:21;;;;;;;30.88;10.23;;;;;;;12.54;100.00;98695.31;5044753;28;20143;-49
2023/10/18 10:04:52;;;;;;;21.63;7.05;;;;;;;12.55;100.00;98687.78;5031693;28;20394;-46
2023/10/18 10:07:39;;;;;;;24.77;7.22;;;;;;;12.56;100.00;98683.78;5036751;28;20578;-50
2023/10/18 10:10:17;;;;;;;26.92;7.60;;;;;;;12.55;100.00;98677.44;5002390;28;20160;-48
2023/10/18 10:12:45;;;;;;;20.20;8.35;;;;;;;12.55;100.00;98666.34;5041959;28;20052;-47
2023/10/18 10:15:15;;;;;;;18.35;7.30;;;;;;;12.55;100.00;98666.34;5033151;28;20049;-47
2023/10/18 10:17:57;;;;;;;22.67;7.57;;;;;;;12.60;100.00;98667.91;5026908;28;20048;-47
2023/10/18 10:20:32;;;;;;;25.75;7.22;;;;;;;12.61;100.00;98653.59;5037323;28;20045;-46
2023/10/18 10:23:06;;;;;;;21.08;6.85;;;;;;;12.64;100.00;98654.78;5037269;28;20064;-48
2023/10/18 10:25:33;;;;;;;25.58;8.88;;;;;;;12.67;100.00;98654.75;5024598;28;20042;-49
2023/10/18 10:31:51;;;;;;;30.00;9.82;;;;;;;12.65;100.00;98648.81;5028936;28;20051;-47
2023/10/18 10:34:32;;;;;;;28.00;7.70;;;;;;;12.66;100.00;98636.50;5013581;28;20701;-50
2023/10/18 10:37:18;;;;;;;27.08;8.40;;;;;;;12.68;100.00;98642.41;5015057;28;20116;-49
2023/10/18 10:40:14;;;;;;;24.15;7.80;;;;;;;12.71;100.00;98647.16;5035415;28;20082;-46
2023/10/18 10:42:44;;;;;;;21.27;7.13;;;;;;;12.74;100.00;98643.56;5015644;28;20123;-46
2023/10/18 10:45:23;;;;;;;;;;;;;;;12.74;100.00;98635.25;5016013;28;20041;-49
2023/10/18 10:47:51;;;;;;;34.20;9.23;;;;;;;12.75;100.00;98624.94;5019507;28;19925;-48
2023/10/18 10:50:42;;;;;;;23.30;6.78;;;;;;;12.75;100.00;98620.16;5024524;28;20142;-47
2023/10/18 10:53:09;;;;;;;26.70;7.28;;;;;;;12.75;100.00;98624.94;5041054;28;20371;-53
2023/10/18 10:55:38;;;;;;;33.65;9.20;;;;;;;12.76;100.00;98616.16;5034045;28;20565;-51
2023/10/18 10:58:18;;;;;;;20.30;6.75;;;;;;;12.83;100.00;98615.34;5027027;28;20048;-46
2023/10/18 11:01:02;;;;;;;25.20;8.32;;;;;;;12.90;100.00;98614.47;5012815;28;20919;-48
2023/10/18 11:03:31;;;;;;;24.98;7.15;;;;;;;12.92;100.00;98600.97;5013867;28;20056;-46
2023/10/18 11:05:58;;;;;;;33.70;8.15;;;;;;;12.93;100.00;98596.97;5013651;28;20137;-53
2023/10/18 11:08:29;;;;;;;22.50;8.35;;;;;;;12.92;100.00;98596.19;5024587;28;20038;-46
2023/10/18 11:10:57;;;;;;;19.48;7.10;;;;;;;12.93;100.00;98591.41;5024080;28;20049;-50
2023/10/18 11:13:25;;;;;;;23.48;7.30;;;;;;;12.92;100.00;98592.63;5024463;28;20042;-47
2023/10/18 11:15:53;;;;;;;21.50;6.45;;;;;;;12.91;100.00;98586.28;5023586;28;20053;-47
2023/10/18 11:18:23;;;;;;;29.02;7.10;;;;;;;12.90;100.00;98586.69;5017403;28;20607;-46
2023/10/18 11:21:05;;;;;;;27.70;8.73;;;;;;;12.90;100.00;98581.13;5021654;28;20048;-47
2023/10/18 11:23:33;;;;;;;25.45;8.27;;;;;;;12.90;100.00;98576.38;5025075;28;20139;-49
2023/10/18 11:26:08;;;;;;;18.70;7.85;;;;;;;12.92;100.00;98570.41;5018918;28;20045;-53
2023/10/18 11:28:38;;;;;;;25.05;7.97;;;;;;;12.94;100.00;98568.00;5020317;28;20161;-49
2023/10/18 11:31:07;;;;;;;31.45;8.45;;;;;;;12.96;100.00;98565.59;5028197;28;20073;-47
2023/10/18 11:33:54;;;;;;;25.60;7.50;;;;;;;12.97;100.00;98562.44;5028161;28;20050;-47
2023/10/18 11:36:21;;;;;;;21.38;7.47;;;;;;;13.00;100.00;98555.25;5027547;28;20388;-47
2023/10/18 11:41:34;;;;;;;20.17;7.20;;;;;;;13.00;100.00;98533.78;5027668;28;20399;-48
2023/10/18 11:44:06;;;;;;;24.98;7.72;;;;;;;12.98;100.00;98538.97;5028111;28;20100;-48
2023/10/18 11:46:51;;;;;;;22.30;7.38;;;;;;;12.99;100.00;98528.66;5026701;28;20037;-47
2023/10/18 11:49:19;;;;;;;18.13;6.72;;;;;;;13.01;100.00;98526.25;5021855;28;20431;-47
2023/10/18 11:51:49;;;;;;;25.15;9.35;;;;;;;13.05;100.00;98524.25;5028524;28;20115;-46
2023/10/18 11:54:31;;;;;;;24.83;9.95;;;;;;;13.07;100.00;98507.97;5027663;28;20037;-49
2023/10/18 11:57:05;;;;;;;36.10;12.32;;;;;;;13.08;100.00;98510.31;5016040;28;20104;-49
2023/10/18 11:59:50;;;;;;;28.58;9.32;;;;;;;13.12;100.00;98507.50;5026607;28;20045;-49
2023/10/18 12:02:17;;;;;;;28.48;8.18;;;;;;;13.12;100.00;98501.94;5009607;28;20470;-48
2023/10/18 12:04:45;;;;;;;25.63;8.93;;;;;;;13.12;100.00;98499.16;5027728;28;20057;-47
2023/10/18 12:07:14;;;;;;;27.00;8.88;;;;;;;13.10;100.00;98494.03;5028286;28;20049;-48
2023/10/18 12:09:44;;;;;;;33.45;9.43;;;;;;;13.10;100.00;98490.47;5028364;28;20517;-48
2023/10/18 12:12:13;;;;;;;24.05;7.75;;;;;;;13.10;100.00;98482.13;5021736;28;20073;-47
2023/10/18 12:14:42;;;;;;;28.33;8.38;;;;;;;13.11;100.00;98478.13;5026233;28;20077;-50
2023/10/18 12:17:10;;;;;;;34.42;8.80;;;;;;;13.11;100.00;98481.69;5011888;28;20535;-50
2023/10/18 12:19:37;;;;;;;19.83;8.45;;;;;;;13.08;100.00;98474.19;5015111;28;20056;-55
2023/10/18 12:22:04;;;;;;;25.73;8.10;;;;;;;13.07;100.00;98463.50;5026351;28;20127;-55
2023/10/18 12:24:34;;;;;;;19.45;7.25;;;;;;;13.05;100.00;98454.78;5027022;28;20126;-51
2023/10/18 12:27:18;;;;;;;23.30;7.43;;;;;;;13.02;100.00;98452.84;5026933;28;20053;-47
2023/10/18 12:29:53;;;;;;;20.45;7.25;;;;;;;13.02;100.00;98444.50;5026091;28;20132;-53
2023/10/18 12:32:23;;;;;;;22.98;7.90;;;;;;;13.03;100.00;98438.53;5025827;28;21104;-50
2023/10/18 12:34:56;;;;;;;17.65;7.63;;;;;;;13.02;100.00;98434.19;5024967;28;20049;-48
2023/10/18 12:37:25;;;;;;;28.25;8.25;;;;;;;13.03;100.00;98418.28;5014402;28;20693;-52
2023/10/18 12:39:52;;;;;;;29.40;7.28;;;;;;;13.01;100.00;98421.50;5012856;28;20046;-49
2023/10/18 12:42:21;;;;;;;20.95;6.95;;;;;;;13.01;100.00;98426.25;5026594;28;20051;-53
2023/10/18 12:44:48;;;;;;;25.52;6.63;;;;;;;13.01;100.00;98404.81;5024832;28;20531;-47
2023/10/18 12:47:21;;;;;;;23.17;7.95;;;;;;;13.00;100.00;98396.94;5019210;28;20050;-51
2023/10/18 12:49:52;;;;;;;24.63;7.90;;;;;;;12.98;100.00;98397.31;5025045;28;20049;-46
2023/10/18 12:55:28;;;;;;;25.80;6.82;;;;;;;12.95;100.00;98380.69;5025242;28;20513;-49
2023/10/18 12:57:53;;;;;;;36.30;10.77;;;;;;;12.94;100.00;98376.38;5021415;28;20439;-49